sensor_id;sensor_type;location;lat;lon;timestamp;P1;durP1;ratioP1;P2;durP2;ratioP2
29548;SDS011;16487;53.094;8.800;2023-06-14T00:02:47;0.97;;;0.97;;
29548;SDS011;16487;53.094;8.800;2023-06-14T00:05:35;1.10;;;1.00;;
29548;SDS011;16487;53.094;8.800;2023-06-14T00:08:23;0.90;;;0.90;;
29548;SDS011;16487;53.094;8.800;2023-06-14T00:11:11;1.20;;;1.10;;
29548;SDS011;16487;53.094;8.800;2023-06-14T00:13:59;1.60;;;1.50;;
29548;SDS011;16487;53.094;8.800;2023-06-14T00:16:47;1.10;;;1.00;;
29548;SDS011;16487;53.094;8.800;2023-06-14T00:19:36;1.47;;;1.03;;
29548;SDS011;16487;53.094;8.800;2023-06-14T00:22:24;1.40;;;1.30;;
29548;SDS011;16487;53.094;8.800;2023-06-14T00:25:12;1.30;;;1.20;;
29548;SDS011;16487;53.094;8.800;2023-06-14T00:28:14;0.80;;;0.80;;
29548;SDS011;16487;53.094;8.800;2023-06-14T00:31:03;1.80;;;0.83;;
29548;SDS011;16487;53.094;8.800;2023-06-14T00:33:51;3.13;;;0.90;;
29548;SDS011;16487;53.094;8.800;2023-06-14T00:36:40;1.17;;;1.00;;
29548;SDS011;16487;53.094;8.800;2023-06-14T00:39:28;1.73;;;1.40;;
29548;SDS011;16487;53.094;8.800;2023-06-14T00:42:24;1.60;;;1.50;;
29548;SDS011;16487;53.094;8.800;2023-06-14T00:45:12;3.83;;;1.70;;
29548;SDS011;16487;53.094;8.800;2023-06-14T00:48:00;1.30;;;1.20;;
29548;SDS011;16487;53.094;8.800;2023-06-14T00:50:49;0.90;;;0.90;;
29548;SDS011;16487;53.094;8.800;2023-06-14T00:53:40;3.93;;;1.30;;
29548;SDS011;16487;53.094;8.800;2023-06-14T00:56:28;1.17;;;1.07;;
29548;SDS011;16487;53.094;8.800;2023-06-14T00:59:16;1.40;;;1.00;;
29548;SDS011;16487;53.094;8.800;2023-06-14T01:02:04;1.40;;;1.13;;
29548;SDS011;16487;53.094;8.800;2023-06-14T01:04:52;0.70;;;0.60;;
29548;SDS011;16487;53.094;8.800;2023-06-14T01:07:43;0.63;;;0.63;;
29548;SDS011;16487;53.094;8.800;2023-06-14T01:10:44;1.73;;;1.63;;
29548;SDS011;16487;53.094;8.800;2023-06-14T01:13:39;1.43;;;1.10;;
29548;SDS011;16487;53.094;8.800;2023-06-14T01:16:30;1.17;;;0.90;;
29548;SDS011;16487;53.094;8.800;2023-06-14T01:19:18;2.10;;;1.27;;
29548;SDS011;16487;53.094;8.800;2023-06-14T01:22:08;1.47;;;1.37;;
29548;SDS011;16487;53.094;8.800;2023-06-14T01:24:57;2.40;;;2.20;;
29548;SDS011;16487;53.094;8.800;2023-06-14T01:27:45;1.20;;;1.10;;
29548;SDS011;16487;53.094;8.800;2023-06-14T01:30:33;1.53;;;1.43;;
29548;SDS011;16487;53.094;8.800;2023-06-14T01:33:21;1.80;;;1.30;;
29548;SDS011;16487;53.094;8.800;2023-06-14T01:36:11;1.67;;;1.23;;
29548;SDS011;16487;53.094;8.800;2023-06-14T01:39:00;1.20;;;1.10;;
29548;SDS011;16487;53.094;8.800;2023-06-14T01:41:49;1.37;;;1.30;;
29548;SDS011;16487;53.094;8.800;2023-06-14T01:44:38;1.50;;;1.27;;
29548;SDS011;16487;53.094;8.800;2023-06-14T01:47:29;1.33;;;1.23;;
29548;SDS011;16487;53.094;8.800;2023-06-14T01:50:18;1.37;;;1.27;;
29548;SDS011;16487;53.094;8.800;2023-06-14T01:53:06;2.40;;;1.30;;
29548;SDS011;16487;53.094;8.800;2023-06-14T01:55:56;1.30;;;1.30;;
29548;SDS011;16487;53.094;8.800;2023-06-14T01:58:46;2.00;;;1.30;;
29548;SDS011;16487;53.094;8.800;2023-06-14T02:01:33;1.90;;;1.47;;
29548;SDS011;16487;53.094;8.800;2023-06-14T02:04:21;1.10;;;1.03;;
29548;SDS011;16487;53.094;8.800;2023-06-14T02:07:09;1.40;;;1.30;;
29548;SDS011;16487;53.094;8.800;2023-06-14T02:09:57;2.27;;;1.50;;
29548;SDS011;16487;53.094;8.800;2023-06-14T02:12:44;1.33;;;1.23;;
29548;SDS011;16487;53.094;8.800;2023-06-14T02:15:33;2.90;;;1.73;;
29548;SDS011;16487;53.094;8.800;2023-06-14T02:18:22;1.53;;;1.23;;
29548;SDS011;16487;53.094;8.800;2023-06-14T02:21:10;1.80;;;1.70;;
29548;SDS011;16487;53.094;8.800;2023-06-14T02:23:58;1.70;;;1.53;;
29548;SDS011;16487;53.094;8.800;2023-06-14T02:26:48;1.97;;;1.70;;
29548;SDS011;16487;53.094;8.800;2023-06-14T02:29:35;1.13;;;1.03;;
29548;SDS011;16487;53.094;8.800;2023-06-14T02:32:25;1.60;;;1.50;;
29548;SDS011;16487;53.094;8.800;2023-06-14T02:35:12;1.10;;;1.03;;
29548;SDS011;16487;53.094;8.800;2023-06-14T02:38:00;3.73;;;1.80;;
29548;SDS011;16487;53.094;8.800;2023-06-14T02:40:48;1.43;;;1.33;;
29548;SDS011;16487;53.094;8.800;2023-06-14T02:43:36;1.87;;;1.37;;
29548;SDS011;16487;53.094;8.800;2023-06-14T02:46:26;3.33;;;2.20;;
29548;SDS011;16487;53.094;8.800;2023-06-14T02:49:15;1.60;;;1.50;;
29548;SDS011;16487;53.094;8.800;2023-06-14T02:52:03;2.43;;;2.00;;
29548;SDS011;16487;53.094;8.800;2023-06-14T02:54:50;1.40;;;1.30;;
29548;SDS011;16487;53.094;8.800;2023-06-14T02:57:38;2.47;;;1.60;;
29548;SDS011;16487;53.094;8.800;2023-06-14T03:00:28;2.23;;;1.90;;
29548;SDS011;16487;53.094;8.800;2023-06-14T03:03:16;2.23;;;1.77;;
29548;SDS011;16487;53.094;8.800;2023-06-14T03:06:12;1.63;;;1.20;;
29548;SDS011;16487;53.094;8.800;2023-06-14T03:09:02;2.10;;;1.80;;
29548;SDS011;16487;53.094;8.800;2023-06-14T03:11:50;2.07;;;1.87;;
29548;SDS011;16487;53.094;8.800;2023-06-14T03:14:37;2.10;;;1.37;;
29548;SDS011;16487;53.094;8.800;2023-06-14T03:17:25;1.67;;;1.57;;
29548;SDS011;16487;53.094;8.800;2023-06-14T03:20:13;2.23;;;1.63;;
29548;SDS011;16487;53.094;8.800;2023-06-14T03:23:03;1.47;;;1.37;;
29548;SDS011;16487;53.094;8.800;2023-06-14T03:25:51;1.83;;;1.50;;
29548;SDS011;16487;53.094;8.800;2023-06-14T03:28:39;4.10;;;2.27;;
29548;SDS011;16487;53.094;8.800;2023-06-14T03:31:28;1.90;;;1.70;;
29548;SDS011;16487;53.094;8.800;2023-06-14T03:34:16;2.97;;;1.70;;
29548;SDS011;16487;53.094;8.800;2023-06-14T03:37:04;1.50;;;1.40;;
29548;SDS011;16487;53.094;8.800;2023-06-14T03:39:53;2.10;;;2.00;;
29548;SDS011;16487;53.094;8.800;2023-06-14T03:42:43;3.43;;;1.60;;
29548;SDS011;16487;53.094;8.800;2023-06-14T03:45:32;2.20;;;1.50;;
29548;SDS011;16487;53.094;8.800;2023-06-14T03:48:20;2.07;;;1.97;;
29548;SDS011;16487;53.094;8.800;2023-06-14T03:51:08;1.50;;;1.40;;
29548;SDS011;16487;53.094;8.800;2023-06-14T03:53:56;1.97;;;1.80;;
29548;SDS011;16487;53.094;8.800;2023-06-14T03:57:06;2.30;;;2.10;;
29548;SDS011;16487;53.094;8.800;2023-06-14T03:59:54;3.93;;;1.67;;
29548;SDS011;16487;53.094;8.800;2023-06-14T04:02:42;5.70;;;2.13;;
29548;SDS011;16487;53.094;8.800;2023-06-14T04:05:31;2.33;;;2.03;;
29548;SDS011;16487;53.094;8.800;2023-06-14T04:08:19;1.27;;;1.10;;
29548;SDS011;16487;53.094;8.800;2023-06-14T04:11:07;1.97;;;1.40;;
29548;SDS011;16487;53.094;8.800;2023-06-14T04:13:56;2.33;;;1.93;;
29548;SDS011;16487;53.094;8.800;2023-06-14T04:16:45;1.77;;;1.67;;
29548;SDS011;16487;53.094;8.800;2023-06-14T04:19:35;1.93;;;1.80;;
29548;SDS011;16487;53.094;8.800;2023-06-14T04:22:23;4.93;;;2.80;;
29548;SDS011;16487;53.094;8.800;2023-06-14T04:25:11;1.97;;;1.77;;
29548;SDS011;16487;53.094;8.800;2023-06-14T04:28:00;3.47;;;1.73;;
29548;SDS011;16487;53.094;8.800;2023-06-14T04:30:49;1.73;;;1.30;;
29548;SDS011;16487;53.094;8.800;2023-06-14T04:33:39;3.27;;;2.23;;
29548;SDS011;16487;53.094;8.800;2023-06-14T04:36:27;2.10;;;1.90;;
29548;SDS011;16487;53.094;8.800;2023-06-14T04:39:15;2.27;;;2.17;;
29548;SDS011;16487;53.094;8.800;2023-06-14T04:42:03;2.40;;;2.20;;
29548;SDS011;16487;53.094;8.800;2023-06-14T04:44:53;1.70;;;1.57;;
29548;SDS011;16487;53.094;8.800;2023-06-14T04:47:42;1.57;;;1.47;;
29548;SDS011;16487;53.094;8.800;2023-06-14T04:50:30;3.47;;;1.80;;
29548;SDS011;16487;53.094;8.800;2023-06-14T04:53:18;1.93;;;1.80;;
29548;SDS011;16487;53.094;8.800;2023-06-14T04:56:07;3.40;;;2.07;;
29548;SDS011;16487;53.094;8.800;2023-06-14T04:58:55;2.10;;;2.00;;
29548;SDS011;16487;53.094;8.800;2023-06-14T05:01:43;2.20;;;2.00;;
29548;SDS011;16487;53.094;8.800;2023-06-14T05:04:32;2.53;;;2.30;;
29548;SDS011;16487;53.094;8.800;2023-06-14T05:07:20;2.47;;;1.90;;
29548;SDS011;16487;53.094;8.800;2023-06-14T05:10:09;2.07;;;1.50;;
29548;SDS011;16487;53.094;8.800;2023-06-14T05:12:57;3.00;;;1.87;;
29548;SDS011;16487;53.094;8.800;2023-06-14T05:15:45;2.80;;;1.87;;
29548;SDS011;16487;53.094;8.800;2023-06-14T05:18:33;2.53;;;1.90;;
29548;SDS011;16487;53.094;8.800;2023-06-14T05:21:26;1.93;;;1.83;;
29548;SDS011;16487;53.094;8.800;2023-06-14T05:24:16;3.10;;;2.07;;
29548;SDS011;16487;53.094;8.800;2023-06-14T05:27:04;3.43;;;1.80;;
29548;SDS011;16487;53.094;8.800;2023-06-14T05:29:52;1.50;;;1.40;;
29548;SDS011;16487;53.094;8.800;2023-06-14T05:32:40;2.00;;;1.80;;
29548;SDS011;16487;53.094;8.800;2023-06-14T05:35:27;1.60;;;1.50;;
29548;SDS011;16487;53.094;8.800;2023-06-14T05:38:16;2.57;;;1.87;;
29548;SDS011;16487;53.094;8.800;2023-06-14T05:41:04;8.50;;;4.50;;
29548;SDS011;16487;53.094;8.800;2023-06-14T05:43:52;7.40;;;5.53;;
29548;SDS011;16487;53.094;8.800;2023-06-14T05:46:41;2.10;;;1.90;;
29548;SDS011;16487;53.094;8.800;2023-06-14T05:49:29;2.10;;;1.90;;
29548;SDS011;16487;53.094;8.800;2023-06-14T05:52:16;3.10;;;2.40;;
29548;SDS011;16487;53.094;8.800;2023-06-14T05:55:06;2.57;;;1.93;;
29548;SDS011;16487;53.094;8.800;2023-06-14T05:57:54;2.30;;;1.77;;
29548;SDS011;16487;53.094;8.800;2023-06-14T06:00:42;1.93;;;1.73;;
29548;SDS011;16487;53.094;8.800;2023-06-14T06:03:30;1.87;;;1.77;;
29548;SDS011;16487;53.094;8.800;2023-06-14T06:06:18;1.90;;;1.80;;
29548;SDS011;16487;53.094;8.800;2023-06-14T06:09:05;2.53;;;2.27;;
29548;SDS011;16487;53.094;8.800;2023-06-14T06:11:54;3.27;;;1.70;;
29548;SDS011;16487;53.094;8.800;2023-06-14T06:14:42;2.43;;;2.23;;
29548;SDS011;16487;53.094;8.800;2023-06-14T06:17:30;3.13;;;1.63;;
29548;SDS011;16487;53.094;8.800;2023-06-14T06:20:37;2.17;;;1.70;;
29548;SDS011;16487;53.094;8.800;2023-06-14T06:23:24;1.70;;;1.33;;
29548;SDS011;16487;53.094;8.800;2023-06-14T06:26:12;1.97;;;1.87;;
29548;SDS011;16487;53.094;8.800;2023-06-14T06:29:01;3.30;;;2.13;;
29548;SDS011;16487;53.094;8.800;2023-06-14T06:31:49;1.87;;;1.67;;
29548;SDS011;16487;53.094;8.800;2023-06-14T06:34:36;2.37;;;2.17;;
29548;SDS011;16487;53.094;8.800;2023-06-14T06:37:24;2.50;;;1.60;;
29548;SDS011;16487;53.094;8.800;2023-06-14T06:40:12;1.60;;;1.43;;
29548;SDS011;16487;53.094;8.800;2023-06-14T06:42:59;3.20;;;2.50;;
29548;SDS011;16487;53.094;8.800;2023-06-14T06:45:49;1.60;;;1.50;;
29548;SDS011;16487;53.094;8.800;2023-06-14T06:48:37;1.63;;;1.53;;
29548;SDS011;16487;53.094;8.800;2023-06-14T06:51:24;2.20;;;1.70;;
29548;SDS011;16487;53.094;8.800;2023-06-14T06:54:12;2.00;;;1.40;;
29548;SDS011;16487;53.094;8.800;2023-06-14T06:57:00;1.63;;;1.53;;
29548;SDS011;16487;53.094;8.800;2023-06-14T06:59:48;2.83;;;2.13;;
29548;SDS011;16487;53.094;8.800;2023-06-14T07:02:37;1.67;;;1.57;;
29548;SDS011;16487;53.094;8.800;2023-06-14T07:05:25;1.57;;;1.43;;
29548;SDS011;16487;53.094;8.800;2023-06-14T07:08:12;1.63;;;1.53;;
29548;SDS011;16487;53.094;8.800;2023-06-14T07:11:00;2.47;;;1.50;;
29548;SDS011;16487;53.094;8.800;2023-06-14T07:13:48;1.50;;;1.40;;
29548;SDS011;16487;53.094;8.800;2023-06-14T07:16:36;1.63;;;1.53;;
29548;SDS011;16487;53.094;8.800;2023-06-14T07:19:26;4.33;;;1.53;;
29548;SDS011;16487;53.094;8.800;2023-06-14T07:22:14;1.87;;;1.70;;
29548;SDS011;16487;53.094;8.800;2023-06-14T07:25:02;1.00;;;1.00;;
29548;SDS011;16487;53.094;8.800;2023-06-14T07:27:50;2.73;;;1.53;;
29548;SDS011;16487;53.094;8.800;2023-06-14T07:30:37;2.20;;;1.37;;
29548;SDS011;16487;53.094;8.800;2023-06-14T07:33:25;1.50;;;1.40;;
29548;SDS011;16487;53.094;8.800;2023-06-14T07:36:14;1.40;;;1.23;;
29548;SDS011;16487;53.094;8.800;2023-06-14T07:39:02;2.03;;;1.50;;
29548;SDS011;16487;53.094;8.800;2023-06-14T07:41:50;4.93;;;1.53;;
29548;SDS011;16487;53.094;8.800;2023-06-14T07:44:38;1.60;;;1.20;;
29548;SDS011;16487;53.094;8.800;2023-06-14T07:47:26;1.10;;;1.00;;
29548;SDS011;16487;53.094;8.800;2023-06-14T07:50:14;1.70;;;1.60;;
29548;SDS011;16487;53.094;8.800;2023-06-14T07:53:03;1.20;;;1.10;;
29548;SDS011;16487;53.094;8.800;2023-06-14T07:55:50;2.33;;;2.23;;
29548;SDS011;16487;53.094;8.800;2023-06-14T07:58:40;1.33;;;1.10;;
29548;SDS011;16487;53.094;8.800;2023-06-14T08:01:28;1.40;;;1.30;;
29548;SDS011;16487;53.094;8.800;2023-06-14T08:04:15;1.73;;;1.23;;
29548;SDS011;16487;53.094;8.800;2023-06-14T08:07:03;1.53;;;1.43;;
29548;SDS011;16487;53.094;8.800;2023-06-14T08:09:55;1.80;;;1.70;;
29548;SDS011;16487;53.094;8.800;2023-06-14T08:12:43;2.43;;;2.10;;
29548;SDS011;16487;53.094;8.800;2023-06-14T08:15:31;1.57;;;1.47;;
29548;SDS011;16487;53.094;8.800;2023-06-14T08:18:18;1.40;;;1.30;;
29548;SDS011;16487;53.094;8.800;2023-06-14T08:21:06;1.70;;;1.60;;
29548;SDS011;16487;53.094;8.800;2023-06-14T08:23:54;2.03;;;1.47;;
29548;SDS011;16487;53.094;8.800;2023-06-14T08:26:44;1.40;;;1.30;;
29548;SDS011;16487;53.094;8.800;2023-06-14T08:29:31;1.20;;;1.10;;
29548;SDS011;16487;53.094;8.800;2023-06-14T08:32:19;1.33;;;1.00;;
29548;SDS011;16487;53.094;8.800;2023-06-14T08:35:07;2.10;;;1.73;;
29548;SDS011;16487;53.094;8.800;2023-06-14T08:37:55;1.83;;;1.70;;
29548;SDS011;16487;53.094;8.800;2023-06-14T08:40:44;2.00;;;1.90;;
29548;SDS011;16487;53.094;8.800;2023-06-14T08:43:36;1.37;;;1.30;;
29548;SDS011;16487;53.094;8.800;2023-06-14T08:46:25;1.70;;;1.60;;
29548;SDS011;16487;53.094;8.800;2023-06-14T08:49:13;2.10;;;1.97;;
29548;SDS011;16487;53.094;8.800;2023-06-14T08:52:04;2.00;;;1.90;;
29548;SDS011;16487;53.094;8.800;2023-06-14T08:54:55;1.40;;;1.30;;
29548;SDS011;16487;53.094;8.800;2023-06-14T08:57:43;1.40;;;1.23;;
29548;SDS011;16487;53.094;8.800;2023-06-14T09:00:34;1.63;;;1.27;;
29548;SDS011;16487;53.094;8.800;2023-06-14T09:03:23;1.70;;;1.60;;
29548;SDS011;16487;53.094;8.800;2023-06-14T09:06:10;2.00;;;1.40;;
29548;SDS011;16487;53.094;8.800;2023-06-14T09:08:58;1.50;;;1.23;;
29548;SDS011;16487;53.094;8.800;2023-06-14T09:11:46;1.40;;;1.30;;
29548;SDS011;16487;53.094;8.800;2023-06-14T09:14:37;1.80;;;1.70;;
29548;SDS011;16487;53.094;8.800;2023-06-14T09:17:26;1.70;;;1.60;;
29548;SDS011;16487;53.094;8.800;2023-06-14T09:20:13;1.77;;;1.40;;
29548;SDS011;16487;53.094;8.800;2023-06-14T09:23:01;1.73;;;1.60;;
29548;SDS011;16487;53.094;8.800;2023-06-14T09:25:51;1.53;;;1.40;;
29548;SDS011;16487;53.094;8.800;2023-06-14T09:28:40;1.67;;;1.57;;
29548;SDS011;16487;53.094;8.800;2023-06-14T09:31:28;2.30;;;1.90;;
29548;SDS011;16487;53.094;8.800;2023-06-14T09:34:18;1.97;;;1.87;;
29548;SDS011;16487;53.094;8.800;2023-06-14T09:37:05;1.80;;;1.70;;
29548;SDS011;16487;53.094;8.800;2023-06-14T09:39:53;1.57;;;1.47;;
29548;SDS011;16487;53.094;8.800;2023-06-14T09:42:41;1.77;;;1.67;;
29548;SDS011;16487;53.094;8.800;2023-06-14T09:45:29;1.77;;;1.57;;
29548;SDS011;16487;53.094;8.800;2023-06-14T09:48:17;2.20;;;2.00;;
29548;SDS011;16487;53.094;8.800;2023-06-14T09:51:06;1.73;;;1.63;;
29548;SDS011;16487;53.094;8.800;2023-06-14T09:53:55;1.97;;;1.80;;
29548;SDS011;16487;53.094;8.800;2023-06-14T09:56:46;1.80;;;1.70;;
29548;SDS011;16487;53.094;8.800;2023-06-14T09:59:34;1.80;;;1.70;;
29548;SDS011;16487;53.094;8.800;2023-06-14T10:02:24;1.80;;;1.70;;
29548;SDS011;16487;53.094;8.800;2023-06-14T10:05:14;1.47;;;1.37;;
29548;SDS011;16487;53.094;8.800;2023-06-14T10:08:07;3.37;;;1.90;;
29548;SDS011;16487;53.094;8.800;2023-06-14T10:10:56;1.83;;;1.73;;
29548;SDS011;16487;53.094;8.800;2023-06-14T10:13:44;2.00;;;1.90;;
29548;SDS011;16487;53.094;8.800;2023-06-14T10:16:34;2.23;;;2.13;;
29548;SDS011;16487;53.094;8.800;2023-06-14T10:19:27;1.67;;;1.57;;
29548;SDS011;16487;53.094;8.800;2023-06-14T10:22:19;2.37;;;2.17;;
29548;SDS011;16487;53.094;8.800;2023-06-14T10:25:16;1.90;;;1.80;;
29548;SDS011;16487;53.094;8.800;2023-06-14T10:28:14;2.23;;;2.10;;
29548;SDS011;16487;53.094;8.800;2023-06-14T10:31:04;1.80;;;1.70;;
29548;SDS011;16487;53.094;8.800;2023-06-14T10:33:55;1.87;;;1.77;;
29548;SDS011;16487;53.094;8.800;2023-06-14T10:36:43;2.30;;;2.10;;
29548;SDS011;16487;53.094;8.800;2023-06-14T10:39:31;1.80;;;1.70;;
29548;SDS011;16487;53.094;8.800;2023-06-14T10:42:24;2.00;;;1.90;;
29548;SDS011;16487;53.094;8.800;2023-06-14T10:45:15;2.00;;;1.90;;
29548;SDS011;16487;53.094;8.800;2023-06-14T10:48:03;2.00;;;1.90;;
29548;SDS011;16487;53.094;8.800;2023-06-14T10:50:54;2.10;;;2.00;;
29548;SDS011;16487;53.094;8.800;2023-06-14T10:53:47;1.93;;;1.83;;
29548;SDS011;16487;53.094;8.800;2023-06-14T10:56:36;2.17;;;2.07;;
29548;SDS011;16487;53.094;8.800;2023-06-14T10:59:25;2.40;;;2.30;;
29548;SDS011;16487;53.094;8.800;2023-06-14T11:02:27;2.83;;;2.10;;
29548;SDS011;16487;53.094;8.800;2023-06-14T11:05:49;2.40;;;2.30;;
29548;SDS011;16487;53.094;8.800;2023-06-14T11:08:40;2.23;;;2.03;;
29548;SDS011;16487;53.094;8.800;2023-06-14T11:11:44;1.63;;;1.53;;
29548;SDS011;16487;53.094;8.800;2023-06-14T11:14:34;2.20;;;2.10;;
29548;SDS011;16487;53.094;8.800;2023-06-14T11:17:22;2.03;;;1.93;;
29548;SDS011;16487;53.094;8.800;2023-06-14T11:20:10;2.27;;;2.17;;
29548;SDS011;16487;53.094;8.800;2023-06-14T11:22:59;2.60;;;2.43;;
29548;SDS011;16487;53.094;8.800;2023-06-14T11:25:49;2.20;;;2.10;;
29548;SDS011;16487;53.094;8.800;2023-06-14T11:28:37;2.50;;;2.37;;
29548;SDS011;16487;53.094;8.800;2023-06-14T11:31:27;2.23;;;2.13;;
29548;SDS011;16487;53.094;8.800;2023-06-14T11:34:16;3.30;;;2.50;;
29548;SDS011;16487;53.094;8.800;2023-06-14T11:37:05;2.13;;;2.03;;
29548;SDS011;16487;53.094;8.800;2023-06-14T11:39:53;2.63;;;2.47;;
29548;SDS011;16487;53.094;8.800;2023-06-14T11:42:43;2.53;;;2.43;;
29548;SDS011;16487;53.094;8.800;2023-06-14T11:45:31;2.97;;;2.37;;
29548;SDS011;16487;53.094;8.800;2023-06-14T11:48:20;2.30;;;2.20;;
29548;SDS011;16487;53.094;8.800;2023-06-14T11:51:08;2.40;;;2.20;;
29548;SDS011;16487;53.094;8.800;2023-06-14T11:53:55;2.00;;;1.90;;
29548;SDS011;16487;53.094;8.800;2023-06-14T11:56:43;2.67;;;2.37;;
29548;SDS011;16487;53.094;8.800;2023-06-14T11:59:31;3.63;;;2.50;;
29548;SDS011;16487;53.094;8.800;2023-06-14T12:02:19;1.83;;;1.73;;
29548;SDS011;16487;53.094;8.800;2023-06-14T12:05:12;3.17;;;2.97;;
29548;SDS011;16487;53.094;8.800;2023-06-14T12:08:01;2.70;;;2.60;;
29548;SDS011;16487;53.094;8.800;2023-06-14T12:10:50;3.07;;;2.87;;
29548;SDS011;16487;53.094;8.800;2023-06-14T12:13:38;2.90;;;2.70;;
29548;SDS011;16487;53.094;8.800;2023-06-14T12:16:29;3.20;;;3.00;;
29548;SDS011;16487;53.094;8.800;2023-06-14T12:19:18;2.37;;;2.27;;
29548;SDS011;16487;53.094;8.800;2023-06-14T12:22:07;3.23;;;3.03;;
29548;SDS011;16487;53.094;8.800;2023-06-14T12:24:57;2.47;;;2.27;;
29548;SDS011;16487;53.094;8.800;2023-06-14T12:27:46;2.90;;;2.80;;
29548;SDS011;16487;53.094;8.800;2023-06-14T12:30:35;2.77;;;2.57;;
29548;SDS011;16487;53.094;8.800;2023-06-14T12:33:23;2.80;;;2.60;;
29548;SDS011;16487;53.094;8.800;2023-06-14T12:36:11;3.10;;;2.90;;
29548;SDS011;16487;53.094;8.800;2023-06-14T12:39:00;2.37;;;2.27;;
29548;SDS011;16487;53.094;8.800;2023-06-14T12:41:48;2.33;;;2.23;;
29548;SDS011;16487;53.094;8.800;2023-06-14T12:44:36;2.77;;;2.17;;
29548;SDS011;16487;53.094;8.800;2023-06-14T12:47:23;2.37;;;2.27;;
29548;SDS011;16487;53.094;8.800;2023-06-14T12:50:11;2.80;;;2.60;;
29548;SDS011;16487;53.094;8.800;2023-06-14T12:52:59;2.73;;;2.53;;
29548;SDS011;16487;53.094;8.800;2023-06-14T12:55:48;2.80;;;2.60;;
29548;SDS011;16487;53.094;8.800;2023-06-14T12:58:36;2.40;;;2.20;;
29548;SDS011;16487;53.094;8.800;2023-06-14T13:01:24;2.07;;;1.97;;
29548;SDS011;16487;53.094;8.800;2023-06-14T13:04:11;2.73;;;2.53;;
29548;SDS011;16487;53.094;8.800;2023-06-14T13:06:59;2.50;;;2.30;;
29548;SDS011;16487;53.094;8.800;2023-06-14T13:09:47;2.70;;;2.50;;
29548;SDS011;16487;53.094;8.800;2023-06-14T13:12:36;2.47;;;2.27;;
29548;SDS011;16487;53.094;8.800;2023-06-14T13:15:24;1.90;;;1.80;;
29548;SDS011;16487;53.094;8.800;2023-06-14T13:18:12;2.57;;;2.37;;
29548;SDS011;16487;53.094;8.800;2023-06-14T13:21:00;2.63;;;2.43;;
29548;SDS011;16487;53.094;8.800;2023-06-14T13:23:47;2.37;;;2.27;;
29548;SDS011;16487;53.094;8.800;2023-06-14T13:26:35;2.83;;;2.63;;
29548;SDS011;16487;53.094;8.800;2023-06-14T13:29:24;3.00;;;2.80;;
29548;SDS011;16487;53.094;8.800;2023-06-14T13:32:12;3.43;;;3.23;;
29548;SDS011;16487;53.094;8.800;2023-06-14T13:35:00;3.00;;;2.90;;
29548;SDS011;16487;53.094;8.800;2023-06-14T13:37:47;3.03;;;2.93;;
29548;SDS011;16487;53.094;8.800;2023-06-14T13:40:35;3.03;;;2.90;;
29548;SDS011;16487;53.094;8.800;2023-06-14T13:43:23;3.00;;;2.80;;
29548;SDS011;16487;53.094;8.800;2023-06-14T13:46:12;3.50;;;3.20;;
29548;SDS011;16487;53.094;8.800;2023-06-14T13:49:00;3.40;;;3.20;;
29548;SDS011;16487;53.094;8.800;2023-06-14T13:51:50;3.47;;;3.27;;
29548;SDS011;16487;53.094;8.800;2023-06-14T13:54:37;3.13;;;2.90;;
29548;SDS011;16487;53.094;8.800;2023-06-14T13:57:25;3.07;;;2.87;;
29548;SDS011;16487;53.094;8.800;2023-06-14T14:00:13;3.03;;;2.83;;
29548;SDS011;16487;53.094;8.800;2023-06-14T14:03:03;2.93;;;2.73;;
29548;SDS011;16487;53.094;8.800;2023-06-14T14:05:51;2.93;;;2.73;;
29548;SDS011;16487;53.094;8.800;2023-06-14T14:08:38;2.47;;;2.37;;
29548;SDS011;16487;53.094;8.800;2023-06-14T14:11:26;2.43;;;2.23;;
29548;SDS011;16487;53.094;8.800;2023-06-14T14:14:14;3.00;;;2.23;;
29548;SDS011;16487;53.094;8.800;2023-06-14T14:17:01;2.47;;;2.37;;
29548;SDS011;16487;53.094;8.800;2023-06-14T14:19:53;2.20;;;2.10;;
29548;SDS011;16487;53.094;8.800;2023-06-14T14:22:41;2.57;;;2.37;;
29548;SDS011;16487;53.094;8.800;2023-06-14T14:25:28;2.50;;;2.40;;
29548;SDS011;16487;53.094;8.800;2023-06-14T14:28:16;2.80;;;2.70;;
29548;SDS011;16487;53.094;8.800;2023-06-14T14:31:04;3.23;;;3.03;;
29548;SDS011;16487;53.094;8.800;2023-06-14T14:33:52;2.57;;;2.47;;
29548;SDS011;16487;53.094;8.800;2023-06-14T14:36:41;3.03;;;2.90;;
29548;SDS011;16487;53.094;8.800;2023-06-14T14:39:29;3.00;;;2.80;;
29548;SDS011;16487;53.094;8.800;2023-06-14T14:42:16;3.60;;;3.30;;
29548;SDS011;16487;53.094;8.800;2023-06-14T14:45:05;2.60;;;2.50;;
29548;SDS011;16487;53.094;8.800;2023-06-14T14:47:53;2.93;;;2.73;;
29548;SDS011;16487;53.094;8.800;2023-06-14T14:50:42;2.47;;;2.27;;
29548;SDS011;16487;53.094;8.800;2023-06-14T14:53:31;2.47;;;2.37;;
29548;SDS011;16487;53.094;8.800;2023-06-14T14:56:19;2.47;;;2.37;;
29548;SDS011;16487;53.094;8.800;2023-06-14T14:59:08;2.73;;;2.53;;
29548;SDS011;16487;53.094;8.800;2023-06-14T15:01:56;2.70;;;2.60;;
29548;SDS011;16487;53.094;8.800;2023-06-14T15:04:44;3.13;;;2.93;;
29548;SDS011;16487;53.094;8.800;2023-06-14T15:07:32;3.10;;;2.87;;
29548;SDS011;16487;53.094;8.800;2023-06-14T15:10:22;2.50;;;2.30;;
29548;SDS011;16487;53.094;8.800;2023-06-14T15:13:10;2.13;;;2.00;;
29548;SDS011;16487;53.094;8.800;2023-06-14T15:15:57;2.40;;;2.30;;
29548;SDS011;16487;53.094;8.800;2023-06-14T15:18:45;2.60;;;2.40;;
29548;SDS011;16487;53.094;8.800;2023-06-14T15:21:33;2.60;;;2.40;;
29548;SDS011;16487;53.094;8.800;2023-06-14T15:24:20;2.43;;;2.23;;
29548;SDS011;16487;53.094;8.800;2023-06-14T15:27:21;2.97;;;2.77;;
29548;SDS011;16487;53.094;8.800;2023-06-14T15:30:10;2.90;;;2.70;;
29548;SDS011;16487;53.094;8.800;2023-06-14T15:32:58;2.20;;;2.10;;
29548;SDS011;16487;53.094;8.800;2023-06-14T15:35:46;3.03;;;2.83;;
29548;SDS011;16487;53.094;8.800;2023-06-14T15:38:33;3.00;;;2.80;;
29548;SDS011;16487;53.094;8.800;2023-06-14T15:41:21;3.37;;;3.17;;
29548;SDS011;16487;53.094;8.800;2023-06-14T15:44:10;3.37;;;3.17;;
29548;SDS011;16487;53.094;8.800;2023-06-14T15:46:58;2.83;;;2.73;;
29548;SDS011;16487;53.094;8.800;2023-06-14T15:49:45;3.60;;;3.40;;
29548;SDS011;16487;53.094;8.800;2023-06-14T15:52:33;3.40;;;3.20;;
29548;SDS011;16487;53.094;8.800;2023-06-14T15:55:21;3.00;;;2.90;;
29548;SDS011;16487;53.094;8.800;2023-06-14T15:58:08;3.17;;;3.00;;
29548;SDS011;16487;53.094;8.800;2023-06-14T16:00:58;3.40;;;3.10;;
29548;SDS011;16487;53.094;8.800;2023-06-14T16:03:46;3.13;;;2.93;;
29548;SDS011;16487;53.094;8.800;2023-06-14T16:06:34;2.90;;;2.70;;
29548;SDS011;16487;53.094;8.800;2023-06-14T16:09:22;2.33;;;2.23;;
29548;SDS011;16487;53.094;8.800;2023-06-14T16:12:10;3.40;;;3.20;;
29548;SDS011;16487;53.094;8.800;2023-06-14T16:15:00;3.10;;;2.90;;
29548;SDS011;16487;53.094;8.800;2023-06-14T16:17:49;3.23;;;3.03;;
29548;SDS011;16487;53.094;8.800;2023-06-14T16:20:37;3.10;;;2.90;;
29548;SDS011;16487;53.094;8.800;2023-06-14T16:23:24;16.30;;;12.63;;
29548;SDS011;16487;53.094;8.800;2023-06-14T16:26:12;11.03;;;8.83;;
29548;SDS011;16487;53.094;8.800;2023-06-14T16:29:00;3.27;;;3.00;;
29548;SDS011;16487;53.094;8.800;2023-06-14T16:31:48;3.90;;;3.47;;
29548;SDS011;16487;53.094;8.800;2023-06-14T16:34:37;2.30;;;2.20;;
29548;SDS011;16487;53.094;8.800;2023-06-14T16:37:25;3.33;;;3.00;;
29548;SDS011;16487;53.094;8.800;2023-06-14T16:40:12;2.50;;;2.40;;
29548;SDS011;16487;53.094;8.800;2023-06-14T16:43:00;4.20;;;2.87;;
29548;SDS011;16487;53.094;8.800;2023-06-14T16:45:48;2.50;;;2.40;;
29548;SDS011;16487;53.094;8.800;2023-06-14T16:48:38;3.10;;;2.90;;
29548;SDS011;16487;53.094;8.800;2023-06-14T16:51:28;3.30;;;3.10;;
29548;SDS011;16487;53.094;8.800;2023-06-14T16:54:16;3.57;;;3.30;;
29548;SDS011;16487;53.094;8.800;2023-06-14T16:57:03;3.40;;;3.20;;
29548;SDS011;16487;53.094;8.800;2023-06-14T16:59:52;3.00;;;2.80;;